createdAt,value
2018-11-26T00:00:36.500Z,52.07
2018-11-26T00:03:11.993Z,51.47
2018-11-26T00:05:41.293Z,44.47
2018-11-26T00:08:11.999Z,48.37
2018-11-26T00:10:52.176Z,51.10
2018-11-26T00:13:20.792Z,43.70
2018-11-26T00:15:49.446Z,43.20
2018-11-26T00:18:18.070Z,49.40
2018-11-26T00:20:47.069Z,47.17
2018-11-26T00:23:15.759Z,49.93
2018-11-26T00:25:44.586Z,43.63
2018-11-26T00:28:13.189Z,46.30
2018-11-26T00:30:41.823Z,48.87
2018-11-26T00:33:10.394Z,41.20
2018-11-26T00:35:39.126Z,51.07
2018-11-26T00:38:07.699Z,51.57
2018-11-26T00:40:36.317Z,50.03
2018-11-26T00:43:05.104Z,50.07
2018-11-26T00:45:33.750Z,45.17
2018-11-26T00:48:02.272Z,48.17
2018-11-26T00:50:30.896Z,45.10
2018-11-26T00:52:59.395Z,44.57
2018-11-26T00:55:28.160Z,42.23
2018-11-26T00:57:56.941Z,44.60
2018-11-26T01:00:25.502Z,51.30
2018-11-26T01:02:54.115Z,47.37
2018-11-26T01:05:39.577Z,47.53
2018-11-26T01:08:08.376Z,50.20
2018-11-26T01:10:37.289Z,48.20
2018-11-26T01:13:06.889Z,58.40
2018-11-26T01:15:35.715Z,45.00
2018-11-26T01:18:04.320Z,41.73
2018-11-26T01:20:32.820Z,47.90
2018-11-26T01:23:01.323Z,49.00
2018-11-26T01:25:30.380Z,47.17
2018-11-26T01:27:59.075Z,51.03
2018-11-26T01:30:27.700Z,51.10
2018-11-26T01:32:56.236Z,52.13
2018-11-26T01:35:24.856Z,46.53
2018-11-26T01:37:53.627Z,46.80
2018-11-26T01:40:54.583Z,57.03
2018-11-26T01:43:23.215Z,50.93
2018-11-26T01:45:51.993Z,44.50
2018-11-26T01:48:20.524Z,59.23
2018-11-26T01:50:49.220Z,49.60
2018-11-26T01:53:17.900Z,53.50
2018-11-26T01:55:46.409Z,57.67
2018-11-26T01:58:14.917Z,46.23
2018-11-26T02:00:43.892Z,48.70
2018-11-26T02:03:12.569Z,42.87
2018-11-26T02:05:41.428Z,45.13
2018-11-26T02:08:10.084Z,36.90
2018-11-26T02:10:38.924Z,36.87
2018-11-26T02:13:07.563Z,50.07
2018-11-26T02:15:39.925Z,41.30
2018-11-26T02:18:09.190Z,45.50
2018-11-26T02:20:37.920Z,43.50
2018-11-26T02:23:06.800Z,44.57
2018-11-26T02:25:35.412Z,40.83
2018-11-26T02:28:03.969Z,42.53
2018-11-26T02:30:32.622Z,40.47
2018-11-26T02:33:01.302Z,40.70
2018-11-26T02:35:29.972Z,38.03
2018-11-26T02:37:58.511Z,39.30
2018-11-26T02:40:30.242Z,42.87
2018-11-26T02:42:59.061Z,38.40
2018-11-26T02:45:28.819Z,40.13
2018-11-26T02:47:57.453Z,49.23
2018-11-26T02:50:26.116Z,41.80
2018-11-26T02:52:54.692Z,41.33
2018-11-26T02:55:23.331Z,42.80
2018-11-26T02:57:52.470Z,36.87
2018-11-26T03:00:21.058Z,39.00
2018-11-26T03:02:49.904Z,35.70
2018-11-26T03:05:27.029Z,40.93
2018-11-26T03:07:55.696Z,37.90
2018-11-26T03:10:24.662Z,47.60
2018-11-26T03:12:53.284Z,40.13
2018-11-26T03:15:21.911Z,47.00
2018-11-26T03:17:50.427Z,36.70
2018-11-26T03:20:19.032Z,40.50
2018-11-26T03:22:47.642Z,43.83
2018-11-26T03:25:16.252Z,44.10
2018-11-26T03:27:44.796Z,42.53
2018-11-26T03:30:15.593Z,37.53
2018-11-26T03:32:44.194Z,36.93
2018-11-26T03:35:12.936Z,37.47
2018-11-26T03:37:41.633Z,41.63
2018-11-26T03:40:11.793Z,38.57
2018-11-26T03:42:40.476Z,42.23
2018-11-26T03:45:12.589Z,36.17
2018-11-26T03:47:41.143Z,38.93
2018-11-26T03:50:10.674Z,39.93
2018-11-26T03:52:39.257Z,40.53
2018-11-26T03:55:09.448Z,40.53
2018-11-26T03:57:38.183Z,39.03
2018-11-26T04:00:14.045Z,40.50
2018-11-26T04:02:43.001Z,41.60
2018-11-26T04:05:12.101Z,37.93
2018-11-26T04:07:41.087Z,41.10
2018-11-26T04:10:11.150Z,41.27
2018-11-26T04:12:39.873Z,41.83
2018-11-26T04:15:14.300Z,44.87
2018-11-26T04:17:42.992Z,43.40
2018-11-26T04:20:11.732Z,44.97
2018-11-26T04:22:40.352Z,42.47
2018-11-26T04:25:09.766Z,40.57
2018-11-26T04:27:38.435Z,36.33
2018-11-26T04:30:09.792Z,39.43
2018-11-26T04:32:39.091Z,45.57
2018-11-26T04:35:07.709Z,43.07
2018-11-26T04:37:36.261Z,47.80
2018-11-26T04:40:06.072Z,42.10
2018-11-26T04:42:34.761Z,43.80
2018-11-26T04:45:03.381Z,54.27
2018-11-26T04:47:32.013Z,47.67
2018-11-26T04:50:00.761Z,40.43
2018-11-26T04:52:29.537Z,47.77
2018-11-26T04:54:58.186Z,60.47
2018-11-26T04:57:26.752Z,56.13
2018-11-26T04:59:55.583Z,44.93
2018-11-26T05:02:24.340Z,46.10
2018-11-26T05:04:53.529Z,51.33
2018-11-26T05:07:22.094Z,48.97
2018-11-26T05:09:50.781Z,48.07
2018-11-26T05:12:19.500Z,42.73
2018-11-26T05:14:48.176Z,52.13
2018-11-26T05:17:16.778Z,41.50
2018-11-26T05:22:24.219Z,50.97
2018-11-26T05:24:52.900Z,55.47
2018-11-26T05:27:21.457Z,49.27
2018-11-26T05:29:50.189Z,48.93
2018-11-26T05:32:18.772Z,44.17
2018-11-26T05:34:47.272Z,52.60
2018-11-26T05:37:15.818Z,49.47
2018-11-26T05:39:44.598Z,43.10
2018-11-26T05:42:13.155Z,44.97
2018-11-26T05:44:41.744Z,45.47
2018-11-26T05:47:10.314Z,52.13
2018-11-26T05:49:38.940Z,47.10
2018-11-26T05:52:07.641Z,42.77
2018-11-26T05:54:37.598Z,43.37
2018-11-26T05:57:07.405Z,39.27
2018-11-26T05:59:36.128Z,40.77
2018-11-26T06:02:04.867Z,47.00
2018-11-26T06:04:33.539Z,43.40
2018-11-26T06:07:02.082Z,45.63
2018-11-26T06:09:30.725Z,37.90
2018-11-26T06:11:59.467Z,41.10
2018-11-26T06:14:28.274Z,42.63
2018-11-26T06:16:56.818Z,34.93
2018-11-26T06:19:25.467Z,42.10
2018-11-26T06:21:54.428Z,33.20
2018-11-26T06:24:23.001Z,34.50
2018-11-26T06:26:52.052Z,37.40
2018-11-26T06:29:20.464Z,37.83
2018-11-26T06:31:49.039Z,39.03
2018-11-26T06:34:17.662Z,42.87
2018-11-26T06:36:46.395Z,35.53
2018-11-26T06:39:14.970Z,39.00
2018-11-26T06:41:43.532Z,43.37
2018-11-26T06:44:12.456Z,44.83
2018-11-26T06:46:41.384Z,41.13
2018-11-26T06:49:09.968Z,42.03
2018-11-26T06:51:39.253Z,41.30
2018-11-26T06:54:08.068Z,38.97
2018-11-26T06:56:36.669Z,39.77
2018-11-26T06:59:05.684Z,35.00
2018-11-26T07:01:34.500Z,36.83
2018-11-26T07:04:03.241Z,39.50
2018-11-26T07:06:32.277Z,41.23
2018-11-26T07:09:01.318Z,47.67
2018-11-26T07:11:30.065Z,37.73
2018-11-26T07:13:58.829Z,42.10
2018-11-26T07:16:27.768Z,47.03
2018-11-26T07:18:56.595Z,46.37
2018-11-26T07:21:25.292Z,36.77
2018-11-26T07:23:53.856Z,46.23
2018-11-26T07:26:22.598Z,44.80
2018-11-26T07:28:51.248Z,50.93
2018-11-26T07:31:20.036Z,44.80
2018-11-26T07:33:49.099Z,45.97
2018-11-26T07:36:17.720Z,47.80
2018-11-26T07:38:46.673Z,53.73
2018-11-26T07:41:15.297Z,46.17
2018-11-26T07:43:44.319Z,47.90
2018-11-26T07:46:13.119Z,45.43
2018-11-26T07:48:41.774Z,55.97
2018-11-26T07:51:10.567Z,48.57
2018-11-26T07:53:39.174Z,53.43
2018-11-26T07:56:07.857Z,42.90
2018-11-26T07:58:36.432Z,59.77
2018-11-26T08:01:05.782Z,47.83
2018-11-26T08:03:34.659Z,42.23
2018-11-26T08:06:08.778Z,46.17
2018-11-26T08:08:31.885Z,86.10
2018-11-26T08:11:00.834Z,48.43
2018-11-26T08:13:29.772Z,55.83
2018-11-26T08:15:58.378Z,52.50
2018-11-26T08:18:27.202Z,53.53
2018-11-26T08:20:56.049Z,58.73
2018-11-26T08:23:25.101Z,51.00
2018-11-26T08:25:53.819Z,39.80
2018-11-26T08:28:22.591Z,74.97
2018-11-26T08:30:51.133Z,48.00
2018-11-26T08:33:19.684Z,54.60
2018-11-26T08:35:48.626Z,177.97
2018-11-26T08:38:22.681Z,53.40
2018-11-26T08:40:57.225Z,45.07
2018-11-26T08:43:31.415Z,63.83
2018-11-26T08:46:04.461Z,108.93
2018-11-26T08:48:33.186Z,73.87
2018-11-26T08:51:03.535Z,147.97
2018-11-26T08:53:32.832Z,56.27
2018-11-26T08:56:02.280Z,57.80
2018-11-26T08:58:31.120Z,51.00
2018-11-26T09:01:04.304Z,55.07
2018-11-26T09:03:40.314Z,48.17
2018-11-26T09:06:09.321Z,98.13
2018-11-26T09:08:38.474Z,66.47
2018-11-26T09:11:09.083Z,45.27
2018-11-26T09:13:38.558Z,50.40
2018-11-26T09:16:07.620Z,46.97
2018-11-26T09:18:36.580Z,53.27
2018-11-26T09:21:05.981Z,43.70
2018-11-26T09:23:35.186Z,50.97
2018-11-26T09:26:04.079Z,49.23
2018-11-26T09:28:32.965Z,48.80
2018-11-26T09:31:01.838Z,51.00
2018-11-26T09:33:30.983Z,47.70
2018-11-26T09:36:00.023Z,48.80
2018-11-26T09:38:29.209Z,46.83
2018-11-26T09:40:58.349Z,43.93
2018-11-26T09:43:27.662Z,47.93
2018-11-26T09:45:56.577Z,49.93
2018-11-26T09:48:27.022Z,46.23
2018-11-26T09:50:56.436Z,46.53
2018-11-26T09:53:25.505Z,46.03
2018-11-26T09:55:54.323Z,46.40
2018-11-26T09:58:23.045Z,45.73
2018-11-26T10:00:52.049Z,51.47
2018-11-26T10:03:20.840Z,55.33
2018-11-26T10:05:49.677Z,47.17
2018-11-26T10:08:18.547Z,46.73
2018-11-26T10:10:47.822Z,43.67
2018-11-26T10:13:16.717Z,42.90
2018-11-26T10:15:45.604Z,48.27
2018-11-26T10:18:14.248Z,55.20
2018-11-26T10:20:43.285Z,42.83
2018-11-26T10:23:12.011Z,44.37
2018-11-26T10:25:40.983Z,49.43
2018-11-26T10:28:09.999Z,49.43
2018-11-26T10:30:38.599Z,47.43
2018-11-26T10:33:14.417Z,45.50
2018-11-26T10:35:36.279Z,49.13
2018-11-26T10:38:05.246Z,48.10
2018-11-26T10:40:34.595Z,37.50
2018-11-26T10:43:03.281Z,47.13
2018-11-26T10:45:32.408Z,49.33
2018-11-26T10:48:01.515Z,41.07
2018-11-26T10:50:30.212Z,45.03
2018-11-26T10:53:00.013Z,45.47
2018-11-26T10:55:33.876Z,41.83
2018-11-26T10:58:02.958Z,58.07
2018-11-26T11:00:36.986Z,51.43
2018-11-26T11:03:06.520Z,38.23
2018-11-26T11:05:36.529Z,40.97
2018-11-26T11:08:06.241Z,47.17
2018-11-26T11:10:35.278Z,45.23
2018-11-26T11:13:04.104Z,40.60
2018-11-26T11:15:32.867Z,50.77
2018-11-26T11:18:01.493Z,45.30
2018-11-26T11:20:30.664Z,41.93
2018-11-26T11:22:59.260Z,42.07
2018-11-26T11:25:27.997Z,33.80
2018-11-26T11:27:56.871Z,44.07
2018-11-26T11:30:30.028Z,36.17
2018-11-26T11:32:58.703Z,40.53
2018-11-26T11:35:27.406Z,40.13
2018-11-26T11:37:56.225Z,32.83
2018-11-26T11:40:29.546Z,40.93
2018-11-26T11:42:59.962Z,46.50
2018-11-26T11:45:29.445Z,47.67
2018-11-26T11:47:58.259Z,38.47
2018-11-26T11:50:27.159Z,46.40
2018-11-26T11:52:55.788Z,36.97
2018-11-26T11:55:25.668Z,36.70
2018-11-26T11:57:54.415Z,38.60
2018-11-26T12:00:34.698Z,39.60
2018-11-26T12:03:05.915Z,34.03
2018-11-26T12:05:34.562Z,32.67
2018-11-26T12:08:03.441Z,38.20
2018-11-26T12:10:32.553Z,42.70
2018-11-26T12:13:01.329Z,30.07
2018-11-26T12:15:30.399Z,32.37
2018-11-26T12:17:59.764Z,68.23
2018-11-26T12:20:28.637Z,40.53
2018-11-26T12:22:57.651Z,36.67
2018-11-26T12:25:26.430Z,36.13
2018-11-26T12:27:55.384Z,43.67
2018-11-26T12:30:26.455Z,38.50
2018-11-26T12:32:54.818Z,36.13
2018-11-26T12:35:23.659Z,45.87
2018-11-26T12:37:53.109Z,37.10
2018-11-26T12:40:24.992Z,59.90
2018-11-26T12:42:55.958Z,41.97
2018-11-26T12:45:27.169Z,58.07
2018-11-26T12:47:56.240Z,169.60
2018-11-26T12:50:25.523Z,55.87
2018-11-26T12:52:54.418Z,61.27
2018-11-26T12:55:24.447Z,55.93
2018-11-26T12:57:54.091Z,63.67
2018-11-26T13:00:26.117Z,49.97
2018-11-26T13:03:04.344Z,60.33
2018-11-26T13:05:33.435Z,54.40
2018-11-26T13:08:02.388Z,53.50
2018-11-26T13:10:31.162Z,58.60
2018-11-26T13:12:59.901Z,46.57
2018-11-26T13:15:29.846Z,71.60
2018-11-26T13:17:58.779Z,58.30
2018-11-26T13:20:29.617Z,55.73
2018-11-26T13:22:58.742Z,66.77
2018-11-26T13:25:29.016Z,62.73
2018-11-26T13:27:59.255Z,56.83
2018-11-26T13:30:34.647Z,67.30
2018-11-26T13:33:05.024Z,61.30
2018-11-26T13:35:34.000Z,64.23
2018-11-26T13:38:02.955Z,74.13
2018-11-26T13:40:32.081Z,69.00
2018-11-26T13:43:00.882Z,74.03
2018-11-26T13:45:32.522Z,66.33
2018-11-26T13:48:01.481Z,65.50
2018-11-26T13:50:34.094Z,74.47
2018-11-26T13:53:03.023Z,69.67
2018-11-26T13:55:32.064Z,89.77
2018-11-26T13:58:00.873Z,71.20
2018-11-26T14:00:29.940Z,68.63
2018-11-26T14:02:59.298Z,69.60
2018-11-26T14:05:28.558Z,95.87
2018-11-26T14:07:57.297Z,80.40
2018-11-26T14:10:27.569Z,84.43
2018-11-26T14:13:07.035Z,93.87
2018-11-26T14:15:35.924Z,79.37
2018-11-26T14:18:04.884Z,74.80
2018-11-26T14:20:33.766Z,88.33
2018-11-26T14:23:02.412Z,86.30
2018-11-26T14:25:31.206Z,83.03
2018-11-26T14:28:00.307Z,87.53
2018-11-26T14:30:29.786Z,93.60
2018-11-26T14:32:58.486Z,101.50
2018-11-26T14:35:27.483Z,77.03
2018-11-26T14:37:59.682Z,73.27
2018-11-26T14:40:31.572Z,103.33
2018-11-26T14:43:00.167Z,87.50
2018-11-26T14:45:28.744Z,77.07
2018-11-26T14:47:57.638Z,81.07
2018-11-26T14:50:26.261Z,78.87
2018-11-26T14:52:55.101Z,76.37
2018-11-26T14:55:27.136Z,81.93
2018-11-26T14:57:56.143Z,82.47
2018-11-26T15:00:25.092Z,86.87
2018-11-26T15:02:53.999Z,83.30
2018-11-26T15:05:22.837Z,83.93
2018-11-26T15:07:51.554Z,71.10
2018-11-26T15:10:23.317Z,76.37
2018-11-26T15:12:52.419Z,98.47
2018-11-26T15:15:24.415Z,86.00
2018-11-26T15:17:53.293Z,91.90
2018-11-26T15:20:24.620Z,89.87
2018-11-26T15:22:54.655Z,83.43
2018-11-26T15:25:25.990Z,82.13
2018-11-26T15:27:56.966Z,87.57
2018-11-26T15:30:25.923Z,83.80
2018-11-26T15:32:55.025Z,73.13
2018-11-26T15:35:24.846Z,74.00
2018-11-26T15:37:53.701Z,83.53
2018-11-26T15:40:23.287Z,76.10
2018-11-26T15:42:52.276Z,84.00
2018-11-26T15:45:25.772Z,84.20
2018-11-26T15:47:56.116Z,71.97
2018-11-26T15:50:25.333Z,75.50
2018-11-26T15:52:54.521Z,79.63
2018-11-26T15:55:24.129Z,74.73
2018-11-26T15:57:53.536Z,68.30
2018-11-26T16:00:23.718Z,76.13
2018-11-26T16:02:53.373Z,68.63
2018-11-26T16:05:26.612Z,78.73
2018-11-26T16:07:58.317Z,69.97
2018-11-26T16:10:27.516Z,79.33
2018-11-26T16:12:58.765Z,89.83
2018-11-26T16:15:30.220Z,75.00
2018-11-26T16:18:00.348Z,81.53
2018-11-26T16:20:29.665Z,82.63
2018-11-26T16:22:59.751Z,83.57
2018-11-26T16:25:28.989Z,90.10
2018-11-26T16:27:58.124Z,84.43
2018-11-26T16:30:27.315Z,88.87
2018-11-26T16:32:57.631Z,86.50
2018-11-26T16:35:28.843Z,78.90
2018-11-26T16:37:58.178Z,78.03
2018-11-26T16:40:27.540Z,75.70
2018-11-26T16:42:56.616Z,77.60
2018-11-26T16:45:26.762Z,79.27
2018-11-26T16:47:56.900Z,87.23
2018-11-26T16:50:30.374Z,104.90
2018-11-26T16:52:59.544Z,89.40
2018-11-26T16:55:28.462Z,74.50
2018-11-26T16:57:58.120Z,80.93
2018-11-26T17:00:28.455Z,80.90
2018-11-26T17:02:58.777Z,76.93
2018-11-26T17:05:29.104Z,72.73
2018-11-26T17:07:58.087Z,76.90
2018-11-26T17:10:27.047Z,72.20
2018-11-26T17:12:56.225Z,84.90
2018-11-26T17:15:25.188Z,70.73
2018-11-26T17:17:54.251Z,76.27
2018-11-26T17:20:23.225Z,77.93
2018-11-26T17:22:52.225Z,80.00
2018-11-26T17:25:21.096Z,88.13
2018-11-26T17:27:50.053Z,83.37
2018-11-26T17:30:24.010Z,97.43
2018-11-26T17:33:01.455Z,83.73
2018-11-26T17:35:31.024Z,90.17
2018-11-26T17:38:00.151Z,84.83
2018-11-26T17:40:29.285Z,85.73
2018-11-26T17:42:58.307Z,82.63
2018-11-26T17:45:27.823Z,87.10
2018-11-26T17:47:59.131Z,82.77
2018-11-26T17:50:35.740Z,79.80
2018-11-26T17:53:06.039Z,87.93
2018-11-26T17:55:43.819Z,75.03
2018-11-26T17:58:12.634Z,72.63
2018-11-26T18:00:41.485Z,80.93
2018-11-26T18:03:10.570Z,90.80
2018-11-26T18:05:39.591Z,99.70
2018-11-26T18:08:16.451Z,85.90
2018-11-26T18:10:46.920Z,92.70
2018-11-26T18:13:15.910Z,78.87
2018-11-26T18:15:45.028Z,81.70
2018-11-26T18:18:15.784Z,71.23
2018-11-26T18:20:45.305Z,83.60
2018-11-26T18:23:14.252Z,91.87
2018-11-26T18:25:43.684Z,80.47
2018-11-26T18:28:14.008Z,81.33
2018-11-26T18:30:51.591Z,74.60
2018-11-26T18:33:22.716Z,97.67
2018-11-26T18:35:51.621Z,88.80
2018-11-26T18:38:20.743Z,78.10
2018-11-26T18:40:51.051Z,82.93
2018-11-26T18:43:20.946Z,86.60
2018-11-26T18:45:50.163Z,83.53
2018-11-26T18:48:18.988Z,76.17
2018-11-26T18:50:49.102Z,86.73
2018-11-26T18:53:18.027Z,78.80
2018-11-26T18:55:46.965Z,75.20
2018-11-26T18:58:16.161Z,84.30
2018-11-26T19:00:48.919Z,82.80
2018-11-26T19:03:24.464Z,80.93
2018-11-26T19:05:55.069Z,78.33
2018-11-26T19:08:24.170Z,79.63
2018-11-26T19:10:57.023Z,73.73
2018-11-26T19:13:33.733Z,71.77
2018-11-26T19:16:09.104Z,88.20
2018-11-26T19:18:39.522Z,66.73
2018-11-26T19:21:11.699Z,76.13
2018-11-26T19:23:41.291Z,73.03
2018-11-26T19:26:11.751Z,80.77
2018-11-26T19:28:41.290Z,68.60
2018-11-26T19:31:12.981Z,73.67
2018-11-26T19:33:42.344Z,69.73
2018-11-26T19:36:11.698Z,73.33
2018-11-26T19:38:41.750Z,72.57
2018-11-26T19:41:12.928Z,77.23
2018-11-26T19:43:43.465Z,67.60
2018-11-26T19:46:15.100Z,66.67
2018-11-26T19:48:45.122Z,65.90
2018-11-26T19:51:14.590Z,72.23
2018-11-26T19:53:44.518Z,63.97
2018-11-26T19:56:15.259Z,72.67
2018-11-26T19:58:47.565Z,68.93
2018-11-26T20:01:18.864Z,67.00
2018-11-26T20:03:56.300Z,63.30
2018-11-26T20:06:26.619Z,73.63
2018-11-26T20:09:00.692Z,64.50
2018-11-26T20:11:33.339Z,67.30
2018-11-26T20:14:00.767Z,73.60
2018-11-26T20:16:37.941Z,68.77
2018-11-26T20:19:07.128Z,69.90
2018-11-26T20:21:39.628Z,74.73
2018-11-26T20:24:10.701Z,69.77
2018-11-26T20:26:40.518Z,74.10
2018-11-26T20:29:09.878Z,68.83
2018-11-26T20:31:39.608Z,64.43
2018-11-26T20:34:09.207Z,69.20
2018-11-26T20:36:39.485Z,62.70
2018-11-26T20:39:10.264Z,64.70
2018-11-26T20:41:40.305Z,73.63
2018-11-26T20:44:10.905Z,70.60
2018-11-26T20:46:40.024Z,72.43
2018-11-26T20:49:09.934Z,70.23
2018-11-26T20:51:40.299Z,66.90
2018-11-26T20:54:09.293Z,67.57
2018-11-26T20:56:39.182Z,68.67
2018-11-26T20:59:08.725Z,67.40
2018-11-26T21:01:38.104Z,65.40
2018-11-26T21:04:07.747Z,57.73
2018-11-26T21:06:36.649Z,69.50
2018-11-26T21:09:07.209Z,68.97
2018-11-26T21:11:36.166Z,60.80
2018-11-26T21:14:05.199Z,60.90
2018-11-26T21:16:34.386Z,59.47
2018-11-26T21:19:03.599Z,50.30
2018-11-26T21:21:32.650Z,53.60
2018-11-26T21:24:01.569Z,39.67
2018-11-26T21:26:31.019Z,49.97
2018-11-26T21:29:00.284Z,37.23
2018-11-26T21:31:29.597Z,39.30
2018-11-26T21:33:58.878Z,30.20
2018-11-26T21:36:27.710Z,35.53
2018-11-26T21:38:56.715Z,35.23
2018-11-26T21:41:25.961Z,40.50
2018-11-26T21:43:55.181Z,35.77
2018-11-26T21:46:24.268Z,36.87
2018-11-26T21:48:53.188Z,37.80
2018-11-26T21:51:22.107Z,30.20
2018-11-26T21:53:50.908Z,43.23
2018-11-26T21:56:19.564Z,40.03
2018-11-26T21:58:48.267Z,33.03
2018-11-26T22:01:17.062Z,30.70
2018-11-26T22:03:45.814Z,39.27
2018-11-26T22:06:14.547Z,36.40
2018-11-26T22:08:43.106Z,35.70
2018-11-26T22:11:11.929Z,36.03
2018-11-26T22:13:40.867Z,35.80
2018-11-26T22:16:09.570Z,33.27
2018-11-26T22:18:38.516Z,41.90
2018-11-26T22:21:07.421Z,41.43
2018-11-26T22:23:36.141Z,35.47
2018-11-26T22:26:04.720Z,37.53
2018-11-26T22:28:33.429Z,39.23
2018-11-26T22:31:02.189Z,32.53
2018-11-26T22:33:30.782Z,37.27
2018-11-26T22:35:59.410Z,32.50
2018-11-26T22:38:28.061Z,33.30
2018-11-26T22:40:56.952Z,36.40
2018-11-26T22:43:25.688Z,34.90
2018-11-26T22:45:54.370Z,40.50
2018-11-26T22:48:23.046Z,41.50
2018-11-26T22:50:51.730Z,36.93
2018-11-26T22:53:20.695Z,38.63
2018-11-26T22:55:49.256Z,35.40
2018-11-26T22:58:18.006Z,40.47
2018-11-26T23:00:51.671Z,34.60
2018-11-26T23:03:24.626Z,40.70
2018-11-26T23:05:53.383Z,39.67
2018-11-26T23:08:22.011Z,35.73
2018-11-26T23:10:51.300Z,38.97
2018-11-26T23:13:20.185Z,32.47
2018-11-26T23:15:48.971Z,38.73
2018-11-26T23:18:17.730Z,36.73
2018-11-26T23:20:46.349Z,31.67
2018-11-26T23:23:14.966Z,34.93
2018-11-26T23:25:43.645Z,49.53
2018-11-26T23:28:12.987Z,41.87
2018-11-26T23:30:41.630Z,43.53
2018-11-26T23:33:10.413Z,31.20
2018-11-26T23:35:39.345Z,44.37
2018-11-26T23:38:07.897Z,38.33
2018-11-26T23:40:37.622Z,40.47
2018-11-26T23:43:07.224Z,31.60
2018-11-26T23:45:37.190Z,35.97
2018-11-26T23:48:06.651Z,34.33
2018-11-26T23:50:36.650Z,33.23
2018-11-26T23:53:06.068Z,31.00
2018-11-26T23:55:35.054Z,28.57
2018-11-26T23:58:03.730Z,35.70
